Time;durP1;ratioP1;P1;durP2;ratioP2;P2;SDS_P1;SDS_P2;PMS_P1;PMS_P2;Temp;Humidity;BMP_temperature;BMP_pressure;BME280_temperature;BME280_humidity;BME280_pressure;Samples;Min_cycle;Max_cycle;Signal;HPM_P1;HPM_P2
2022/12/13 20:21:28;;;;;;;88.65;31.55;;;;;;;-9.29;78.71;98229.81;5087416;27;20392;-72
2022/12/13 20:23:53;;;;;;;128.80;44.00;;;;;;;-9.16;78.66;98226.56;5086157;28;20067;-72
2022/12/13 20:26:24;;;;;;;141.35;49.40;;;;;;;-8.99;78.82;98229.97;5087453;28;20024;-71
2022/12/13 20:28:50;;;;;;;131.48;48.85;;;;;;;-8.77;79.08;98221.34;5085187;28;20074;-72
2022/12/13 20:31:37;;;;;;;130.63;48.70;;;;;;;-8.53;78.59;98229.09;5086470;28;20549;-71
2022/12/13 20:34:07;;;;;;;126.65;50.08;;;;;;;-8.26;79.03;98224.22;5087047;28;20115;-72
2022/12/13 20:36:33;;;;;;;130.93;52.33;;;;;;;-8.02;78.83;98208.19;5087472;28;20526;-72
2022/12/13 20:39:01;;;;;;;142.40;58.63;;;;;;;-7.79;79.03;98213.41;5087400;28;20024;-72
2022/12/13 20:41:29;;;;;;;166.10;71.38;;;;;;;-7.57;79.14;98216.16;5087738;28;20032;-73
2022/12/13 20:43:56;;;;;;;135.38;57.88;;;;;;;-7.37;79.10;98206.56;5087163;28;20032;-72
2022/12/13 20:46:23;;;;;;;146.52;62.78;;;;;;;-7.16;79.15;98204.16;5069165;28;20093;-73
2022/12/13 20:48:49;;;;;;;142.57;61.85;;;;;;;-6.96;79.38;98205.16;5083842;28;20020;-72
2022/12/13 20:51:18;;;;;;;122.20;54.28;;;;;;;-6.75;79.36;98208.88;5086962;28;20534;-71
2022/12/13 20:53:45;;;;;;;112.50;48.13;;;;;;;-6.59;79.63;98203.25;5087217;28;20020;-73
2022/12/13 20:56:16;;;;;;;105.32;44.00;;;;;;;-6.44;78.88;98199.69;5087351;28;20480;-72
2022/12/13 20:58:43;;;;;;;89.82;38.72;;;;;;;-6.30;78.85;98195.28;5087594;28;20063;-72
2022/12/13 21:01:16;;;;;;;87.80;36.13;;;;;;;-6.22;79.38;98179.13;5086056;28;20039;-72
2022/12/13 21:03:42;;;;;;;87.60;35.65;;;;;;;-6.12;78.78;98186.78;5083887;28;20456;-72
2022/12/13 21:06:07;;;;;;;88.45;34.03;;;;;;;-6.07;78.79;98191.53;5085656;28;20031;-72
2022/12/13 21:08:50;;;;;;;87.90;36.20;;;;;;;-6.06;78.26;98187.84;5086377;28;20535;-72
2022/12/13 21:11:26;;;;;;;127.22;46.53;;;;;;;-6.07;78.37;98192.38;5085944;28;20024;-72
2022/12/13 21:13:51;;;;;;;184.52;61.08;;;;;;;-6.07;78.57;98191.53;5085749;28;20025;-72
2022/12/13 21:16:17;;;;;;;187.25;61.38;;;;;;;-6.09;78.29;98186.41;5085751;28;20035;-72
2022/12/13 21:18:43;;;;;;;164.10;56.30;;;;;;;-6.12;77.61;98197.47;5086692;28;20037;-73
2022/12/13 21:21:09;;;;;;;187.65;62.78;;;;;;;-6.19;77.61;98188.56;5104719;28;20044;-73
2022/12/13 21:23:35;;;;;;;178.63;63.75;;;;;;;-6.28;77.56;98199.41;5107401;28;20031;-73
2022/12/13 21:26:00;;;;;;;183.93;62.42;;;;;;;-6.34;77.54;98197.53;5107122;28;20039;-72
2022/12/13 21:28:26;;;;;;;204.73;66.55;;;;;;;-6.38;77.64;98190.06;5107178;28;20027;-73
2022/12/13 21:30:58;;;;;;;231.70;76.72;;;;;;;-6.46;76.92;98194.53;5086375;28;20054;-72
2022/12/13 21:33:23;;;;;;;244.70;77.47;;;;;;;-6.57;77.07;98192.41;5075601;28;20089;-72
2022/12/13 21:35:49;;;;;;;245.43;76.65;;;;;;;-6.64;76.47;98194.19;5093344;28;20032;-72
2022/12/13 21:38:14;;;;;;;266.83;82.07;;;;;;;-6.71;76.67;98191.44;5093751;28;20032;-71
2022/12/13 21:40:47;;;;;;;263.70;82.60;;;;;;;-6.77;76.77;98200.22;5093647;28;20066;-72
2022/12/13 21:43:13;;;;;;;261.25;81.80;;;;;;;-6.82;76.23;98194.63;5075372;28;20052;-72
2022/12/13 21:45:40;;;;;;;270.88;87.93;;;;;;;-6.89;76.47;98194.56;5093500;28;20024;-71
2022/12/13 21:48:06;;;;;;;299.92;96.15;;;;;;;-6.94;76.40;98199.66;5093611;28;20035;-73
2022/12/13 21:50:31;;;;;;;300.27;96.40;;;;;;;-7.00;76.31;98195.09;5093543;28;20465;-72
2022/12/13 21:52:56;;;;;;;306.65;94.18;;;;;;;-7.06;76.63;98199.31;5093208;28;20470;-71
2022/12/13 21:55:22;;;;;;;294.65;91.88;;;;;;;-7.12;76.51;98198.22;5074860;28;20028;-72
2022/12/13 22:00:35;;;;;;;299.33;91.20;;;;;;;-7.24;76.32;98192.56;5093523;28;20081;-72
2022/12/13 22:03:01;;;;;;;295.67;92.80;;;;;;;-7.29;76.00;98188.81;5093118;28;20024;-72
2022/12/13 22:05:26;;;;;;;291.55;94.10;;;;;;;-7.33;76.10;98196.34;5093108;28;20439;-72
2022/12/13 22:07:51;;;;;;;268.85;88.82;;;;;;;-7.35;76.18;98195.72;5074030;28;20030;-71
2022/12/13 22:10:17;;;;;;;266.88;87.03;;;;;;;-7.37;75.99;98198.59;5092549;28;20039;-71
2022/12/13 22:12:42;;;;;;;268.08;84.43;;;;;;;-7.39;75.55;98189.09;5092637;28;20059;-71
2022/12/13 22:15:11;;;;;;;273.00;84.50;;;;;;;-7.40;76.22;98198.97;5088093;28;20023;-69
2022/12/13 22:17:37;;;;;;;316.10;89.10;;;;;;;-7.46;75.84;98191.72;5090185;28;20557;-71
2022/12/13 22:20:06;;;;;;;267.63;78.68;;;;;;;-7.49;75.83;98198.22;5090266;28;20044;-71
2022/12/13 22:22:31;;;;;;;275.08;79.60;;;;;;;-7.48;75.72;98196.41;5090105;28;20025;-72
2022/12/13 22:24:56;;;;;;;271.15;80.70;;;;;;;-7.48;76.01;98197.22;5090543;28;20028;-70
2022/12/13 22:27:23;;;;;;;289.10;84.50;;;;;;;-7.49;75.75;98192.88;5086307;28;20024;-72
2022/12/13 22:29:49;;;;;;;300.77;88.65;;;;;;;-7.49;76.04;98194.75;5089694;28;20032;-72
2022/12/13 22:32:15;;;;;;;304.85;87.78;;;;;;;-7.51;75.55;98191.44;5090311;28;20032;-71
2022/12/13 22:34:40;;;;;;;314.00;86.10;;;;;;;-7.49;75.60;98187.56;5090608;28;20032;-72
2022/12/13 22:37:06;;;;;;;294.63;83.75;;;;;;;-7.49;75.87;98190.22;5090206;28;20035;-71
2022/12/13 22:39:31;;;;;;;301.85;82.47;;;;;;;-7.48;75.91;98188.41;5089278;28;20115;-72
2022/12/13 22:41:58;;;;;;;288.00;79.32;;;;;;;-7.47;75.54;98188.19;5071830;28;20041;-72
2022/12/13 22:44:23;;;;;;;271.02;77.50;;;;;;;-7.45;75.54;98180.03;5088796;28;20024;-71
2022/12/13 22:46:50;;;;;;;251.35;72.43;;;;;;;-7.40;75.48;98176.81;5089900;28;20028;-71
2022/12/13 22:49:16;;;;;;;256.98;72.93;;;;;;;-7.36;75.74;98184.25;5071047;28;20024;-71
2022/12/13 22:51:42;;;;;;;240.05;71.05;;;;;;;-7.33;75.80;98181.19;5089918;28;20748;-70
2022/12/13 22:54:08;;;;;;;241.00;74.05;;;;;;;-7.32;75.55;98174.03;5090405;28;20056;-71
2022/12/13 22:56:34;;;;;;;234.73;74.90;;;;;;;-7.27;75.93;98171.63;5091225;28;20054;-72
2022/12/13 22:59:01;;;;;;;217.93;69.70;;;;;;;-7.25;75.83;98161.59;5089755;28;20761;-72
2022/12/13 23:01:32;;;;;;;210.07;66.05;;;;;;;-7.19;75.38;98171.53;5090497;28;20032;-72
2022/12/13 23:03:58;;;;;;;208.00;65.85;;;;;;;-7.16;76.08;98170.31;5091232;28;20545;-72
2022/12/13 23:06:27;;;;;;;199.48;62.30;;;;;;;-7.13;75.37;98164.59;5091079;28;20024;-72
2022/12/13 23:08:58;;;;;;;195.63;61.17;;;;;;;-7.13;75.72;98155.78;5090463;28;20036;-72
2022/12/13 23:14:10;;;;;;;217.75;68.95;;;;;;;-7.14;75.71;98152.28;5091940;28;20472;-72
2022/12/13 23:16:36;;;;;;;215.43;70.80;;;;;;;-7.16;75.70;98145.50;5072905;28;20444;-73
2022/12/13 23:19:04;;;;;;;224.80;76.07;;;;;;;-7.19;75.35;98136.88;5090588;28;20028;-73
2022/12/13 23:21:29;;;;;;;232.18;79.03;;;;;;;-7.24;75.49;98133.94;5089351;28;20062;-73
2022/12/13 23:23:57;;;;;;;240.95;82.88;;;;;;;-7.26;75.10;98143.97;5089452;28;20453;-73
2022/12/13 23:26:25;;;;;;;239.52;85.07;;;;;;;-7.31;75.18;98130.38;5088907;28;20102;-73
2022/12/13 23:28:53;;;;;;;233.68;81.25;;;;;;;-7.37;75.15;98128.47;5089613;28;20412;-73
2022/12/13 23:31:21;;;;;;;257.48;86.90;;;;;;;-7.43;74.94;98127.41;5085850;28;20039;-71
2022/12/13 23:33:46;;;;;;;250.48;81.38;;;;;;;-7.47;74.84;98129.59;5087759;28;20036;-72
2022/12/13 23:36:14;;;;;;;231.15;79.43;;;;;;;-7.53;74.55;98125.00;5089946;28;20929;-73
2022/12/13 23:38:40;;;;;;;219.13;76.55;;;;;;;-7.56;74.89;98119.25;5089280;28;20035;-72
2022/12/13 23:41:14;;;;;;;231.27;77.40;;;;;;;-7.62;74.49;98118.97;5089086;28;20039;-72
2022/12/13 23:43:42;;;;;;;213.57;75.88;;;;;;;-7.65;74.51;98118.53;5071945;28;20058;-72
2022/12/13 23:46:10;;;;;;;213.93;78.72;;;;;;;-7.67;74.81;98121.38;5090133;28;20182;-73
2022/12/13 23:48:36;;;;;;;219.18;73.65;;;;;;;-7.74;74.67;98117.81;5090086;28;20034;-72
2022/12/13 23:51:04;;;;;;;207.05;72.68;;;;;;;-7.79;74.76;98115.72;5089488;28;20028;-72
2022/12/13 23:53:31;;;;;;;209.32;72.00;;;;;;;-7.81;74.50;98115.06;5089771;28;20048;-72
2022/12/13 23:55:58;;;;;;;216.15;73.18;;;;;;;-7.81;74.01;98111.59;5090017;28;20024;-71
2022/12/13 23:58:24;;;;;;;212.25;72.57;;;;;;;-7.86;74.51;98120.13;5089526;28;20111;-72
